Elmrock, Kentucky
Current Conditions -  °F | °C
As of 6:15 PM on Saturday 25 Oct 2014 (Local Time) from KPBX Reporting Station
Scattered Clouds Scattered Clouds  
Wind Chill: 63°   Ceiling: Unl
Heat Index: 63°   Visibility: 10mi
Dew Point: 50°   Wind: 3mph
Humidity: 62%   Direction: 210°SSW
Pressure: 29.97"   Gusts: NA
Location:  37.5041°N, 82.8415°W
Report Text: KPBX 252215Z AUTO 21003KT 10SM SCT029 17/10 A2997 RMK AO2 T01730099
Loading
Personal Weather Stations






























Interactive Weather Map
Tropical Storm Tracking
New forecast layout! Learn more

10-Day Weather Forecast

Advertisements
Track Severe Weather on mobile